Time;durP1;ratioP1;P1;durP2;ratioP2;P2;SDS_P1;SDS_P2;PMS_P1;PMS_P2;Temp;Humidity;BMP_temperature;BMP_pressure;BME280_temperature;BME280_humidity;BME280_pressure;Samples;Min_cycle;Max_cycle;Signal;HPM_P1;HPM_P2
2022/08/15 00:01:36;;;;;;;5.40;5.00;;;;;;;;;;5110867;28;20638;-83
2022/08/15 00:04:06;;;;;;;5.30;4.90;;;;;;;;;;5110899;28;20206;-82
2022/08/15 00:06:37;;;;;;;5.93;5.33;;;;;;;;;;5111005;28;20191;-82
2022/08/15 00:09:06;;;;;;;5.73;4.83;;;;;;;;;;5110876;28;20650;-82
2022/08/15 00:11:37;;;;;;;5.27;4.83;;;;;;;;;;5111374;28;20620;-83
2022/08/15 00:14:09;;;;;;;7.23;5.57;;;;;;;;;;5110912;28;20212;-82
2022/08/15 00:16:38;;;;;;;5.77;5.27;;;;;;;;;;5095055;28;20223;-83
2022/08/15 00:19:08;;;;;;;7.87;5.63;;;;;;;;;;5111188;28;20227;-82
2022/08/15 00:21:36;;;;;;;7.20;6.50;;;;;;;;;;5111131;28;20257;-82
2022/08/15 00:24:04;;;;;;;6.57;6.03;;;;;;;;;;5110768;28;20653;-82
2022/08/15 00:26:32;;;;;;;6.20;5.57;;;;;;;;;;5110576;28;20264;-82
2022/08/15 00:28:59;;;;;;;6.37;5.87;;;;;;;;;;5110732;28;20677;-83
2022/08/15 00:31:28;;;;;;;6.23;5.70;;;;;;;;;;5110752;28;20195;-83
2022/08/15 00:33:54;;;;;;;5.77;5.30;;;;;;;;;;5111198;28;20279;-83
2022/08/15 00:36:21;;;;;;;5.57;5.17;;;;;;;;;;5110727;28;20202;-83
2022/08/15 00:38:48;;;;;;;5.63;5.00;;;;;;;;;;5114374;28;20219;-83
2022/08/15 00:44:02;;;;;;;5.97;5.47;;;;;;;;;;5114702;28;20680;-83
2022/08/15 00:46:30;;;;;;;5.63;5.23;;;;;;;;;;5114640;28;20192;-82
2022/08/15 00:48:57;;;;;;;8.13;5.00;;;;;;;;;;5114411;28;20187;-82
2022/08/15 00:51:28;;;;;;;6.60;6.00;;;;;;;;;;5114946;28;20256;-83
2022/08/15 00:53:56;;;;;;;5.83;5.33;;;;;;;;;;5114090;28;20187;-83
2022/08/15 00:56:27;;;;;;;6.13;5.53;;;;;;;;;;5111912;28;20195;-83
2022/08/15 00:58:55;;;;;;;6.50;5.77;;;;;;;;;;5114190;28;20219;-82
2022/08/15 01:01:22;;;;;;;5.67;5.27;;;;;;;;;;5114173;28;20215;-82
2022/08/15 01:03:52;;;;;;;5.60;5.10;;;;;;;;;;5114499;28;20203;-82
2022/08/15 01:06:21;;;;;;;7.03;6.00;;;;;;;;;;5113699;28;20221;-82
2022/08/15 01:08:48;;;;;;;5.63;5.13;;;;;;;;;;5114244;28;20252;-83
2022/08/15 01:11:21;;;;;;;5.67;5.17;;;;;;;;;;5113941;28;20666;-83
2022/08/15 01:13:48;;;;;;;5.43;5.03;;;;;;;;;;5114387;28;20579;-83
2022/08/15 01:16:15;;;;;;;6.17;5.67;;;;;;;;;;5114038;28;20199;-83
2022/08/15 01:18:42;;;;;;;5.77;5.27;;;;;;;;;;5113806;28;20223;-83
2022/08/15 01:21:16;;;;;;;5.73;5.23;;;;;;;;;;5114175;28;20638;-83
2022/08/15 01:23:51;;;;;;;6.00;5.40;;;;;;;;;;5114169;28;20197;-83
2022/08/15 01:26:20;;;;;;;5.87;5.37;;;;;;;;;;5113636;28;20199;-82
2022/08/15 01:28:47;;;;;;;6.20;5.70;;;;;;;;;;5114151;28;20336;-83
2022/08/15 01:31:16;;;;;;;6.03;5.53;;;;;;;;;;5113616;28;20195;-83
2022/08/15 01:33:46;;;;;;;6.20;5.70;;;;;;;;;;5113968;28;20188;-83
2022/08/15 01:36:14;;;;;;;6.00;5.50;;;;;;;;;;5113460;28;20210;-83
2022/08/15 01:38:44;;;;;;;5.97;5.47;;;;;;;;;;5098160;28;20701;-83
2022/08/15 01:41:16;;;;;;;6.27;5.77;;;;;;;;;;5113590;28;20223;-83
2022/08/15 01:43:50;;;;;;;5.87;5.20;;;;;;;;;;5113391;28;20199;-82
2022/08/15 01:46:17;;;;;;;6.33;5.73;;;;;;;;;;5113360;28;20203;-83
2022/08/15 01:48:47;;;;;;;6.37;5.77;;;;;;;;;;5113081;28;20199;-83
2022/08/15 01:51:17;;;;;;;6.40;5.80;;;;;;;;;;5113426;28;20207;-83
2022/08/15 01:53:47;;;;;;;6.90;5.47;;;;;;;;;;5113338;28;20252;-82
2022/08/15 01:56:20;;;;;;;6.13;5.63;;;;;;;;;;5113417;28;20191;-82
2022/08/15 01:58:48;;;;;;;5.77;5.27;;;;;;;;;;5113181;28;20246;-82
2022/08/15 02:01:18;;;;;;;6.73;6.13;;;;;;;;;;5113289;28;20677;-83
2022/08/15 02:03:47;;;;;;;7.63;6.93;;;;;;;;;;5113457;28;20206;-83
2022/08/15 02:06:18;;;;;;;7.00;6.37;;;;;;;;;;5112872;28;20203;-83
2022/08/15 02:08:46;;;;;;;7.37;5.67;;;;;;;;;;5112988;28;20223;-82
2022/08/15 02:11:17;;;;;;;5.47;4.97;;;;;;;;;;5112804;28;20200;-82
2022/08/15 02:13:44;;;;;;;6.03;5.53;;;;;;;;;;5113144;28;20199;-83
2022/08/15 02:16:13;;;;;;;5.40;4.97;;;;;;;;;;5112818;28;20192;-83
2022/08/15 02:18:40;;;;;;;5.80;5.30;;;;;;;;;;5112641;28;20697;-83
2022/08/15 02:21:07;;;;;;;7.33;5.50;;;;;;;;;;5112583;28;20568;-83
2022/08/15 02:23:34;;;;;;;5.33;4.87;;;;;;;;;;5112355;28;20199;-83
2022/08/15 02:26:02;;;;;;;6.93;6.23;;;;;;;;;;5112845;28;20227;-83
2022/08/15 02:28:29;;;;;;;6.43;5.80;;;;;;;;;;5112488;28;20206;-83
2022/08/15 02:30:56;;;;;;;9.13;6.20;;;;;;;;;;5112840;28;20206;-83
2022/08/15 02:33:24;;;;;;;6.03;5.47;;;;;;;;;;5112311;28;20196;-83
2022/08/15 02:35:52;;;;;;;6.60;6.10;;;;;;;;;;5112082;28;20297;-83
2022/08/15 02:38:19;;;;;;;6.53;5.93;;;;;;;;;;5112617;28;20259;-83
2022/08/15 02:40:46;;;;;;;5.57;5.07;;;;;;;;;;5112494;28;20195;-83
2022/08/15 02:43:14;;;;;;;8.23;6.30;;;;;;;;;;5112007;28;20662;-83
2022/08/15 02:45:47;;;;;;;6.67;6.17;;;;;;;;;;5112596;28;20569;-83
2022/08/15 02:48:14;;;;;;;6.30;5.80;;;;;;;;;;5111934;28;20559;-83
2022/08/15 02:50:44;;;;;;;7.10;5.77;;;;;;;;;;5112075;28;20187;-83
2022/08/15 02:53:12;;;;;;;6.53;5.93;;;;;;;;;;5112328;28;20203;-83
2022/08/15 02:55:40;;;;;;;7.40;6.70;;;;;;;;;;5111576;28;20541;-83
2022/08/15 02:58:07;;;;;;;7.40;6.50;;;;;;;;;;5112094;28;20223;-82
2022/08/15 03:00:34;;;;;;;6.23;5.73;;;;;;;;;;5111453;28;20235;-83
2022/08/15 03:03:06;;;;;;;6.50;5.93;;;;;;;;;;5111790;28;20567;-83
2022/08/15 03:05:34;;;;;;;6.17;5.60;;;;;;;;;;5112158;28;20204;-83
2022/08/15 03:08:03;;;;;;;7.00;6.40;;;;;;;;;;5111484;28;20202;-83
2022/08/15 03:10:30;;;;;;;6.10;5.57;;;;;;;;;;5111762;28;21099;-83
2022/08/15 03:12:59;;;;;;;6.17;5.67;;;;;;;;;;5111580;28;20191;-82
2022/08/15 03:15:32;;;;;;;8.03;6.00;;;;;;;;;;5111571;28;20271;-83
2022/08/15 03:17:59;;;;;;;6.10;5.50;;;;;;;;;;5111636;28;20245;-82
2022/08/15 03:20:27;;;;;;;6.00;5.33;;;;;;;;;;5111561;28;20195;-83
2022/08/15 03:22:53;;;;;;;5.80;5.40;;;;;;;;;;5111481;28;20236;-83
2022/08/15 03:25:24;;;;;;;9.33;6.27;;;;;;;;;;5111551;28;20237;-83
2022/08/15 03:27:51;;;;;;;5.67;5.03;;;;;;;;;;5112153;28;20199;-83
2022/08/15 03:30:18;;;;;;;6.90;5.73;;;;;;;;;;5111467;28;20213;-82
2022/08/15 03:32:51;;;;;;;7.30;6.60;;;;;;;;;;5111376;28;20188;-83
2022/08/15 03:35:20;;;;;;;7.27;6.57;;;;;;;;;;5111237;28;20204;-83
2022/08/15 03:37:47;;;;;;;8.47;5.80;;;;;;;;;;5111776;28;20205;-83
2022/08/15 03:40:17;;;;;;;5.53;5.13;;;;;;;;;;5111512;28;20291;-83
2022/08/15 03:42:53;;;;;;;6.07;5.57;;;;;;;;;;5111318;28;20215;-83
2022/08/15 03:45:21;;;;;;;6.87;6.27;;;;;;;;;;5111593;28;20601;-83
2022/08/15 03:47:48;;;;;;;6.37;5.87;;;;;;;;;;5111509;28;20199;-83
2022/08/15 03:50:15;;;;;;;6.57;6.07;;;;;;;;;;5110932;28;20227;-83
2022/08/15 03:52:51;;;;;;;6.33;5.83;;;;;;;;;;5111481;28;20195;-83
2022/08/15 03:55:19;;;;;;;6.33;5.77;;;;;;;;;;5110981;28;20222;-83
2022/08/15 03:57:46;;;;;;;6.77;6.07;;;;;;;;;;5111318;28;20199;-83
2022/08/15 04:00:16;;;;;;;6.93;6.23;;;;;;;;;;5111438;28;20235;-83
2022/08/15 04:02:43;;;;;;;6.93;6.33;;;;;;;;;;5110805;28;20198;-83
2022/08/15 04:05:11;;;;;;;6.37;5.77;;;;;;;;;;5111464;28;20584;-83
2022/08/15 04:07:38;;;;;;;7.13;6.20;;;;;;;;;;5110874;28;20695;-84
2022/08/15 04:10:06;;;;;;;6.40;5.90;;;;;;;;;;5111092;28;20575;-83
2022/08/15 04:12:35;;;;;;;6.00;5.50;;;;;;;;;;5112853;28;20608;-83
2022/08/15 04:15:03;;;;;;;6.43;5.83;;;;;;;;;;5115028;28;20233;-83
2022/08/15 04:17:31;;;;;;;5.93;5.47;;;;;;;;;;5115123;28;20198;-83
2022/08/15 04:19:58;;;;;;;6.57;5.97;;;;;;;;;;5114950;28;20280;-83
2022/08/15 04:22:29;;;;;;;6.57;5.53;;;;;;;;;;5115004;28;20199;-83
2022/08/15 04:25:01;;;;;;;7.27;6.57;;;;;;;;;;5114878;28;20195;-83
2022/08/15 04:27:28;;;;;;;5.63;5.13;;;;;;;;;;5114776;28;20286;-83
2022/08/15 04:29:54;;;;;;;5.83;5.33;;;;;;;;;;5115341;28;20210;-83
2022/08/15 04:32:25;;;;;;;6.43;5.83;;;;;;;;;;5114831;28;20199;-83
2022/08/15 04:34:54;;;;;;;6.83;6.23;;;;;;;;;;5114655;28;20284;-83
2022/08/15 04:37:21;;;;;;;5.83;5.33;;;;;;;;;;5114858;28;20757;-83
2022/08/15 04:39:50;;;;;;;5.80;5.30;;;;;;;;;;5114789;28;20310;-83
2022/08/15 04:42:18;;;;;;;7.93;5.90;;;;;;;;;;5115058;28;20229;-83
2022/08/15 04:44:45;;;;;;;6.53;6.03;;;;;;;;;;5114778;28;20195;-84
2022/08/15 04:47:12;;;;;;;6.30;5.70;;;;;;;;;;5114454;28;20195;-83
2022/08/15 04:49:39;;;;;;;6.50;6.00;;;;;;;;;;5114461;28;20203;-83
2022/08/15 04:52:09;;;;;;;6.53;5.93;;;;;;;;;;5114501;28;20779;-83
2022/08/15 04:54:36;;;;;;;6.00;5.50;;;;;;;;;;5114456;28;20203;-83
2022/08/15 04:57:03;;;;;;;6.57;6.07;;;;;;;;;;5114586;28;20210;-83
2022/08/15 04:59:30;;;;;;;6.53;5.93;;;;;;;;;;5113980;28;20225;-83
2022/08/15 05:01:57;;;;;;;6.60;5.63;;;;;;;;;;5114260;28;20257;-83
2022/08/15 05:04:24;;;;;;;6.13;5.63;;;;;;;;;;5096465;28;20230;-83
2022/08/15 05:06:51;;;;;;;6.40;5.90;;;;;;;;;;5114278;28;20192;-83
2022/08/15 05:09:19;;;;;;;5.70;5.30;;;;;;;;;;5114534;28;20577;-83
2022/08/15 05:11:46;;;;;;;7.20;6.53;;;;;;;;;;5114479;28;20187;-83
2022/08/15 05:14:13;;;;;;;7.80;6.23;;;;;;;;;;5113903;28;20203;-84
2022/08/15 05:16:40;;;;;;;6.30;5.80;;;;;;;;;;5114260;28;20191;-84
2022/08/15 05:19:06;;;;;;;6.70;6.10;;;;;;;;;;5114335;28;20268;-83
2022/08/15 05:21:33;;;;;;;8.70;6.13;;;;;;;;;;5114389;28;20199;-83
2022/08/15 05:24:00;;;;;;;7.47;6.77;;;;;;;;;;5113171;28;20573;-83
2022/08/15 05:26:29;;;;;;;7.20;6.50;;;;;;;;;;5114110;28;20195;-83
2022/08/15 05:28:56;;;;;;;10.97;6.37;;;;;;;;;;5114372;28;20623;-83
2022/08/15 05:31:23;;;;;;;6.60;6.10;;;;;;;;;;5113437;28;20196;-83
2022/08/15 05:33:50;;;;;;;11.40;6.77;;;;;;;;;;5113769;28;20199;-83
2022/08/15 05:36:18;;;;;;;8.70;7.87;;;;;;;;;;5113199;28;20572;-83
2022/08/15 05:38:49;;;;;;;6.83;6.23;;;;;;;;;;5099125;28;20246;-82
2022/08/15 05:41:23;;;;;;;7.37;6.77;;;;;;;;;;5113640;28;20191;-83
2022/08/15 05:43:57;;;;;;;6.57;5.97;;;;;;;;;;5113445;28;20198;-83
2022/08/15 05:46:26;;;;;;;8.23;7.43;;;;;;;;;;5113758;28;20585;-83
2022/08/15 05:49:00;;;;;;;11.40;7.20;;;;;;;;;;5113282;28;20601;-83
2022/08/15 05:51:32;;;;;;;7.37;6.80;;;;;;;;;;5113699;28;20280;-82
2022/08/15 05:54:06;;;;;;;7.03;6.43;;;;;;;;;;5112869;28;20196;-83
2022/08/15 05:56:40;;;;;;;8.40;6.20;;;;;;;;;;5107078;28;20196;-82
2022/08/15 05:59:11;;;;;;;6.50;5.90;;;;;;;;;;5107765;28;20219;-82
2022/08/15 06:01:41;;;;;;;6.53;5.97;;;;;;;;;;5099008;28;20631;-83
2022/08/15 06:04:11;;;;;;;6.73;6.17;;;;;;;;;;5112901;28;20574;-82
2022/08/15 06:06:41;;;;;;;5.53;5.03;;;;;;;;;;5113381;28;20200;-83
2022/08/15 06:09:28;;;;;;;6.37;5.87;;;;;;;;;;5113124;28;20222;-83
2022/08/15 06:11:55;;;;;;;6.87;6.23;;;;;;;;;;5112931;28;20191;-83
2022/08/15 06:14:28;;;;;;;6.27;5.77;;;;;;;;;;5112836;28;20218;-82
2022/08/15 06:17:02;;;;;;;6.33;5.57;;;;;;;;;;5113113;28;20191;-82
2022/08/15 06:19:34;;;;;;;6.73;6.13;;;;;;;;;;5113024;28;20211;-82
2022/08/15 06:22:09;;;;;;;6.57;5.20;;;;;;;;;;5113358;28;20635;-82
2022/08/15 06:24:42;;;;;;;5.97;5.47;;;;;;;;;;5112661;28;20199;-82
2022/08/15 06:27:14;;;;;;;5.63;5.13;;;;;;;;;;5112696;28;20294;-82
2022/08/15 06:30:01;;;;;;;6.33;5.83;;;;;;;;;;5112755;28;20202;-83
2022/08/15 06:32:36;;;;;;;6.03;5.53;;;;;;;;;;5112940;28;20203;-82
2022/08/15 06:35:09;;;;;;;6.23;5.17;;;;;;;;;;5111306;28;20263;-82
2022/08/15 06:37:42;;;;;;;6.03;5.53;;;;;;;;;;5112333;28;20191;-82
2022/08/15 06:40:13;;;;;;;5.97;5.53;;;;;;;;;;5112201;28;20646;-83
2022/08/15 06:42:41;;;;;;;5.43;4.93;;;;;;;;;;5112357;28;20207;-82
2022/08/15 06:45:15;;;;;;;5.50;5.00;;;;;;;;;;5112588;28;20200;-83
2022/08/15 06:47:42;;;;;;;5.53;5.03;;;;;;;;;;5112494;28;20200;-82
2022/08/15 06:50:14;;;;;;;6.70;5.30;;;;;;;;;;5112149;28;20555;-82
2022/08/15 06:52:45;;;;;;;6.07;5.57;;;;;;;;;;5112026;28;20196;-81
2022/08/15 06:55:11;;;;;;;6.40;5.80;;;;;;;;;;5112076;28;20207;-82
2022/08/15 06:57:45;;;;;;;5.50;5.10;;;;;;;;;;5112195;28;20365;-82
2022/08/15 07:00:19;;;;;;;5.73;5.27;;;;;;;;;;5112754;28;20231;-82
2022/08/15 07:02:56;;;;;;;5.57;5.07;;;;;;;;;;5112175;28;20199;-82
2022/08/15 07:05:27;;;;;;;6.37;5.70;;;;;;;;;;5112150;28;20218;-82
2022/08/15 07:08:02;;;;;;;5.43;5.03;;;;;;;;;;5111879;28;20190;-82
2022/08/15 07:10:33;;;;;;;5.10;4.70;;;;;;;;;;5112119;28;20289;-82
2022/08/15 07:13:04;;;;;;;5.67;5.17;;;;;;;;;;5111411;28;20227;-82
2022/08/15 07:15:50;;;;;;;4.90;4.50;;;;;;;;;;5111574;28;20282;-80
2022/08/15 07:18:34;;;;;;;5.20;4.80;;;;;;;;;;5111624;28;20693;-82
2022/08/15 07:21:03;;;;;;;6.33;5.43;;;;;;;;;;5111450;28;20241;-82
2022/08/15 07:23:31;;;;;;;5.27;4.60;;;;;;;;;;5111583;28;20250;-83
2022/08/15 07:26:02;;;;;;;5.77;4.60;;;;;;;;;;5111723;28;20205;-81
2022/08/15 07:28:30;;;;;;;6.70;5.40;;;;;;;;;;5111744;28;20573;-82
2022/08/15 07:31:03;;;;;;;5.30;4.83;;;;;;;;;;5111245;28;20196;-82
2022/08/15 07:33:37;;;;;;;5.17;4.63;;;;;;;;;;5111332;28;20198;-82
2022/08/15 07:36:08;;;;;;;10.80;5.87;;;;;;;;;;5111371;28;20215;-83
2022/08/15 07:38:35;;;;;;;6.57;5.50;;;;;;;;;;5111538;28;20191;-82
2022/08/15 07:41:18;;;;;;;6.13;5.17;;;;;;;;;;5110983;28;20219;-83
2022/08/15 07:43:46;;;;;;;7.33;4.90;;;;;;;;;;5111670;28;20223;-82
2022/08/15 07:46:16;;;;;;;4.83;4.43;;;;;;;;;;5110979;28;20207;-83
2022/08/15 07:48:44;;;;;;;5.40;5.00;;;;;;;;;;5111381;28;20192;-81
2022/08/15 07:51:20;;;;;;;5.80;4.93;;;;;;;;;;5111603;28;20203;-83
2022/08/15 07:53:53;;;;;;;5.57;5.00;;;;;;;;;;5111095;28;20324;-83
2022/08/15 07:56:21;;;;;;;5.30;4.80;;;;;;;;;;5111089;28;20690;-82
2022/08/15 07:58:52;;;;;;;5.37;4.87;;;;;;;;;;5111053;28;20199;-83
2022/08/15 08:01:24;;;;;;;5.47;5.00;;;;;;;;;;5111066;28;20307;-83
2022/08/15 08:03:55;;;;;;;5.03;4.50;;;;;;;;;;5111097;28;20211;-83
2022/08/15 08:06:28;;;;;;;5.60;5.10;;;;;;;;;;5110904;28;20202;-84
2022/08/15 08:09:04;;;;;;;5.47;4.87;;;;;;;;;;5110801;28;20219;-84
2022/08/15 08:11:46;;;;;;;5.67;5.10;;;;;;;;;;5111205;28;20202;-84
2022/08/15 08:14:19;;;;;;;5.00;4.60;;;;;;;;;;5110881;28;20203;-84
2022/08/15 08:16:51;;;;;;;6.03;5.50;;;;;;;;;;5111246;28;20260;-85
2022/08/15 08:19:24;;;;;;;7.07;5.43;;;;;;;;;;5110818;28;20611;-84
2022/08/15 08:22:09;;;;;;;5.70;5.30;;;;;;;;;;5110871;28;20677;-84
2022/08/15 08:24:48;;;;;;;6.47;5.97;;;;;;;;;;5110945;28;20223;-84
2022/08/15 08:27:22;;;;;;;6.03;5.43;;;;;;;;;;5111103;28;20260;-83
2022/08/15 08:29:54;;;;;;;6.20;5.70;;;;;;;;;;5110897;28;20272;-84
2022/08/15 08:32:28;;;;;;;7.03;6.03;;;;;;;;;;5110818;28;20223;-85
2022/08/15 08:35:07;;;;;;;5.90;5.30;;;;;;;;;;5111022;28;20199;-85
2022/08/15 08:37:41;;;;;;;5.33;4.93;;;;;;;;;;5110891;28;20573;-86
2022/08/15 08:43:10;;;;;;;5.17;4.77;;;;;;;;;;5110578;28;20207;-85
2022/08/15 08:45:44;;;;;;;6.43;5.82;;;;;;;;;;5096453;28;20195;-85
2022/08/15 08:48:31;;;;;;;5.93;5.43;;;;;;;;;;5110893;28;20195;-85
2022/08/15 08:51:06;;;;;;;5.33;4.83;;;;;;;;;;5111034;28;20201;-85
2022/08/15 08:53:40;;;;;;;6.27;5.43;;;;;;;;;;5098629;28;20683;-86
2022/08/15 08:56:14;;;;;;;5.17;4.77;;;;;;;;;;5110258;28;20621;-83
2022/08/15 08:58:45;;;;;;;6.43;5.83;;;;;;;;;;5112033;28;20248;-85
2022/08/15 09:01:16;;;;;;;5.77;5.17;;;;;;;;;;5114462;28;20234;-85
2022/08/15 09:03:47;;;;;;;5.83;5.33;;;;;;;;;;5101370;28;20232;-86
2022/08/15 09:06:17;;;;;;;5.93;5.33;;;;;;;;;;5113708;28;20219;-86
2022/08/15 09:08:51;;;;;;;5.70;5.20;;;;;;;;;;5114401;28;20203;-85
2022/08/15 09:11:21;;;;;;;6.13;5.53;;;;;;;;;;5114377;28;20191;-86
2022/08/15 09:13:49;;;;;;;6.10;5.50;;;;;;;;;;5114095;28;20200;-85
2022/08/15 09:16:18;;;;;;;5.50;5.10;;;;;;;;;;5114095;28;20192;-87
2022/08/15 09:18:49;;;;;;;6.10;5.47;;;;;;;;;;5114355;28;20226;-86
2022/08/15 09:21:18;;;;;;;5.57;5.17;;;;;;;;;;5114230;28;20220;-86
2022/08/15 09:23:46;;;;;;;5.60;5.20;;;;;;;;;;5114371;28;20680;-85
2022/08/15 09:26:17;;;;;;;6.33;5.83;;;;;;;;;;5113926;28;20196;-86
2022/08/15 09:28:45;;;;;;;7.40;5.80;;;;;;;;;;5113913;28;20192;-86
2022/08/15 09:31:14;;;;;;;6.03;5.47;;;;;;;;;;5113888;28;20210;-85
2022/08/15 09:34:11;;;;;;;6.00;5.50;;;;;;;;;;5113823;28;20199;-85
2022/08/15 09:37:00;;;;;;;6.70;6.10;;;;;;;;;;5112226;28;20195;-87
2022/08/15 09:39:47;;;;;;;7.50;6.93;;;;;;;;;;5113913;28;20634;-87
2022/08/15 09:42:27;;;;;;;10.87;9.97;;;;;;;;;;5099787;28;20218;-87
2022/08/15 09:45:09;;;;;;;6.90;6.30;;;;;;;;;;5112333;28;20252;-88
2022/08/15 09:47:49;;;;;;;7.17;6.57;;;;;;;;;;5102547;28;20195;-87
2022/08/15 09:50:41;;;;;;;6.37;5.77;;;;;;;;;;5114001;28;20196;-87
2022/08/15 09:53:17;;;;;;;6.93;5.90;;;;;;;;;;5113862;28;20639;-88
2022/08/15 09:55:46;;;;;;;5.40;4.90;;;;;;;;;;5111442;28;20196;-87
2022/08/15 09:58:20;;;;;;;5.70;5.20;;;;;;;;;;5102967;28;20202;-87
2022/08/15 10:00:53;;;;;;;5.90;5.50;;;;;;;;;;5113367;28;20688;-87
2022/08/15 10:03:23;;;;;;;6.75;6.15;;;;;;;;;;5113680;28;20249;-87
2022/08/15 10:06:04;;;;;;;5.70;5.20;;;;;;;;;;5113738;28;20196;-88
2022/08/15 10:09:12;;;;;;;5.80;5.30;;;;;;;;;;5113316;28;20634;-88
2022/08/15 10:11:59;;;;;;;6.15;5.65;;;;;;;;;;5113195;28;20192;-88
2022/08/15 10:14:28;;;;;;;5.57;5.18;;;;;;;;;;5113782;28;20195;-88
2022/08/15 10:16:58;;;;;;;6.15;5.57;;;;;;;;;;5113191;28;20188;-86
2022/08/15 10:19:31;;;;;;;4.80;4.43;;;;;;;;;;5113174;28;20199;-86
2022/08/15 10:22:03;;;;;;;7.55;5.93;;;;;;;;;;5112939;28;20219;-88
2022/08/15 10:24:33;;;;;;;5.18;4.78;;;;;;;;;;5113604;28;20392;-88
2022/08/15 10:27:17;;;;;;;6.15;5.65;;;;;;;;;;5113040;28;20636;-87
2022/08/15 10:29:48;;;;;;;5.50;5.10;;;;;;;;;;5112814;28;20199;-87
2022/08/15 10:32:23;;;;;;;5.78;5.20;;;;;;;;;;5112661;28;20267;-87
2022/08/15 10:35:00;;;;;;;5.75;5.28;;;;;;;;;;5113221;28;20214;-88
2022/08/15 10:37:32;;;;;;;5.95;5.45;;;;;;;;;;5102936;28;20192;-86
2022/08/15 10:40:40;;;;;;;6.45;5.85;;;;;;;;;;5108232;28;20195;-87
2022/08/15 10:43:28;;;;;;;6.00;5.40;;;;;;;;;;5112753;28;20200;-87
2022/08/15 10:46:00;;;;;;;5.90;5.40;;;;;;;;;;5102151;28;20664;-87
2022/08/15 10:48:44;;;;;;;6.17;5.57;;;;;;;;;;5112839;28;20267;-86
2022/08/15 10:51:21;;;;;;;5.80;5.30;;;;;;;;;;5112901;28;20624;-88
2022/08/15 10:53:57;;;;;;;7.15;6.45;;;;;;;;;;5112594;28;20217;-87
2022/08/15 10:56:26;;;;;;;5.65;5.15;;;;;;;;;;5112818;28;20240;-88
2022/08/15 10:58:59;;;;;;;6.03;5.53;;;;;;;;;;5097762;28;20216;-88
2022/08/15 11:01:31;;;;;;;6.13;5.63;;;;;;;;;;5099842;28;20728;-88
2022/08/15 11:04:02;;;;;;;5.60;5.10;;;;;;;;;;5113075;28;20268;-89
2022/08/15 11:06:30;;;;;;;5.20;4.70;;;;;;;;;;5106345;28;20196;-88
2022/08/15 11:09:08;;;;;;;6.65;5.70;;;;;;;;;;5105864;28;20207;-88
2022/08/15 11:11:39;;;;;;;5.55;5.05;;;;;;;;;;5105451;28;20199;-87
2022/08/15 11:14:08;;;;;;;5.68;5.18;;;;;;;;;;5092266;28;20199;-89
2022/08/15 11:16:38;;;;;;;5.55;5.15;;;;;;;;;;5096241;28;20568;-88
2022/08/15 11:19:18;;;;;;;5.57;5.07;;;;;;;;;;5112482;28;20200;-87
2022/08/15 11:21:50;;;;;;;5.60;5.20;;;;;;;;;;5093615;28;20219;-89
2022/08/15 11:24:27;;;;;;;5.30;4.90;;;;;;;;;;5112914;28;20202;-89
2022/08/15 11:27:09;;;;;;;5.68;5.20;;;;;;;;;;5105729;28;20212;-89
2022/08/15 11:29:36;;;;;;;5.13;4.72;;;;;;;;;;5107806;28;20218;-88
2022/08/15 11:32:03;;;;;;;5.53;5.13;;;;;;;;;;5099080;28;20214;-87
2022/08/15 11:34:33;;;;;;;4.80;4.40;;;;;;;;;;5112239;28;20196;-88
2022/08/15 11:37:05;;;;;;;5.45;4.95;;;;;;;;;;5113095;28;20683;-89
2022/08/15 11:39:38;;;;;;;4.55;4.15;;;;;;;;;;5112699;28;20203;-88
2022/08/15 11:42:06;;;;;;;4.90;4.47;;;;;;;;;;5111846;28;20231;-87
2022/08/15 11:44:40;;;;;;;5.35;4.95;;;;;;;;;;5112262;28;20569;-88
2022/08/15 11:47:07;;;;;;;4.88;4.15;;;;;;;;;;5112018;28;20206;-87
2022/08/15 11:49:35;;;;;;;6.25;5.63;;;;;;;;;;5112584;28;20646;-87
2022/08/15 11:52:05;;;;;;;5.40;5.00;;;;;;;;;;5112134;28;20203;-88
2022/08/15 11:54:34;;;;;;;5.60;5.05;;;;;;;;;;5112790;28;20211;-88
2022/08/15 11:57:03;;;;;;;4.43;4.13;;;;;;;;;;5098301;28;20204;-89
2022/08/15 11:59:32;;;;;;;5.15;4.75;;;;;;;;;;5111239;28;20731;-88
2022/08/15 12:02:10;;;;;;;4.88;4.47;;;;;;;;;;5112120;28;20211;-88
2022/08/15 12:04:39;;;;;;;5.30;4.85;;;;;;;;;;5112057;28;20195;-88
2022/08/15 12:07:12;;;;;;;5.22;4.40;;;;;;;;;;5111778;28;20199;-88
2022/08/15 12:09:49;;;;;;;5.07;4.68;;;;;;;;;;5111822;28;20191;-88
2022/08/15 12:12:21;;;;;;;8.05;5.72;;;;;;;;;;5112242;28;20233;-88
2022/08/15 12:14:48;;;;;;;6.18;5.63;;;;;;;;;;5111470;28;20200;-87
2022/08/15 12:17:25;;;;;;;5.25;4.75;;;;;;;;;;5111728;28;20254;-87
2022/08/15 12:19:55;;;;;;;5.07;4.68;;;;;;;;;;5111132;28;20562;-87
2022/08/15 12:22:33;;;;;;;5.47;5.00;;;;;;;;;;5111223;28;20701;-87
2022/08/15 12:25:05;;;;;;;4.80;4.40;;;;;;;;;;5111538;28;20198;-87
2022/08/15 12:27:35;;;;;;;5.32;4.82;;;;;;;;;;5111256;28;20227;-87
2022/08/15 12:30:04;;;;;;;5.63;5.20;;;;;;;;;;5111571;28;20248;-87
2022/08/15 12:32:32;;;;;;;6.03;5.53;;;;;;;;;;5111315;28;20261;-87
2022/08/15 12:34:59;;;;;;;5.35;4.85;;;;;;;;;;5114664;28;20230;-86
2022/08/15 12:37:28;;;;;;;5.75;5.25;;;;;;;;;;5115146;28;20206;-86
2022/08/15 12:39:56;;;;;;;5.97;5.47;;;;;;;;;;5114748;28;20230;-86
2022/08/15 12:42:28;;;;;;;5.70;4.97;;;;;;;;;;5114817;28;20647;-86
2022/08/15 12:44:57;;;;;;;5.95;5.45;;;;;;;;;;5114982;28;20192;-86
2022/08/15 12:47:32;;;;;;;5.77;5.27;;;;;;;;;;5115284;28;20224;-86
2022/08/15 12:49:59;;;;;;;4.82;4.43;;;;;;;;;;5115318;28;20544;-86
2022/08/15 12:52:27;;;;;;;5.50;5.00;;;;;;;;;;5114018;28;20688;-86
2022/08/15 12:54:54;;;;;;;7.40;5.67;;;;;;;;;;5114484;28;20199;-86
2022/08/15 12:57:21;;;;;;;5.78;5.20;;;;;;;;;;5099853;28;20676;-85
2022/08/15 12:59:49;;;;;;;6.00;5.40;;;;;;;;;;5115172;28;20227;-86
2022/08/15 13:02:16;;;;;;;5.50;5.10;;;;;;;;;;5114451;28;20232;-85
2022/08/15 13:04:50;;;;;;;5.53;5.03;;;;;;;;;;5114973;28;20198;-86
2022/08/15 13:07:18;;;;;;;5.10;4.70;;;;;;;;;;5097029;28;20202;-87
2022/08/15 13:09:45;;;;;;;6.37;5.80;;;;;;;;;;5115455;28;20206;-86
2022/08/15 13:12:13;;;;;;;5.60;5.20;;;;;;;;;;5114286;28;20195;-86
2022/08/15 13:14:40;;;;;;;5.93;5.32;;;;;;;;;;5111004;28;20196;-86
2022/08/15 13:17:09;;;;;;;5.83;5.33;;;;;;;;;;5102889;28;20203;-86
2022/08/15 13:25:03;;;;;;;6.25;5.72;;;;;;;;;;5100197;28;20207;-86
2022/08/15 13:27:32;;;;;;;5.38;4.97;;;;;;;;;;5114465;28;20203;-86
2022/08/15 13:29:59;;;;;;;6.20;5.25;;;;;;;;;;5114002;28;20207;-86
2022/08/15 13:32:28;;;;;;;5.20;4.72;;;;;;;;;;5113588;28;20600;-86
2022/08/15 13:34:54;;;;;;;6.10;5.50;;;;;;;;;;5114219;28;20719;-85
2022/08/15 13:37:26;;;;;;;6.68;5.13;;;;;;;;;;5114294;28;20199;-86
2022/08/15 13:39:53;;;;;;;6.10;5.60;;;;;;;;;;5111169;28;20199;-87
2022/08/15 13:42:22;;;;;;;6.68;5.68;;;;;;;;;;5113876;28;20223;-87
2022/08/15 13:44:50;;;;;;;5.40;5.00;;;;;;;;;;5113915;28;20668;-86
2022/08/15 13:47:20;;;;;;;4.95;4.55;;;;;;;;;;5114011;28;20201;-86
2022/08/15 13:49:48;;;;;;;5.15;4.68;;;;;;;;;;5108594;28;20204;-86
2022/08/15 13:52:15;;;;;;;5.95;5.45;;;;;;;;;;5103893;28;20546;-86
2022/08/15 13:54:42;;;;;;;6.22;5.72;;;;;;;;;;5113971;28;20195;-86
2022/08/15 13:57:09;;;;;;;7.03;6.25;;;;;;;;;;5106124;28;20261;-87
2022/08/15 13:59:36;;;;;;;6.10;5.50;;;;;;;;;;5103222;28;20207;-86
2022/08/15 14:02:05;;;;;;;6.03;5.53;;;;;;;;;;5114025;28;20230;-86
2022/08/15 14:04:35;;;;;;;6.22;5.72;;;;;;;;;;5113378;28;20199;-86
2022/08/15 14:07:04;;;;;;;6.63;6.10;;;;;;;;;;5114106;28;20553;-86
2022/08/15 14:09:32;;;;;;;6.55;5.95;;;;;;;;;;5113914;28;20192;-87
2022/08/15 14:12:00;;;;;;;6.18;5.68;;;;;;;;;;5113541;28;20669;-87
2022/08/15 14:14:27;;;;;;;6.32;5.85;;;;;;;;;;5113846;28;20207;-87
2022/08/15 14:16:54;;;;;;;6.75;6.18;;;;;;;;;;5113460;28;20192;-87
2022/08/15 14:19:22;;;;;;;6.70;6.10;;;;;;;;;;5112675;28;20196;-86
2022/08/15 14:21:49;;;;;;;6.10;5.47;;;;;;;;;;5114595;28;20220;-86
2022/08/15 14:24:17;;;;;;;6.68;6.18;;;;;;;;;;5113224;28;20199;-86
2022/08/15 14:26:46;;;;;;;6.47;5.97;;;;;;;;;;5114281;28;20199;-89
2022/08/15 14:29:22;;;;;;;6.60;6.10;;;;;;;;;;5064967;28;20206;-89
2022/08/15 14:31:50;;;;;;;6.28;5.68;;;;;;;;;;5095228;28;20207;-89
2022/08/15 14:34:17;;;;;;;6.43;5.82;;;;;;;;;;5087024;28;20200;-89
2022/08/15 14:36:45;;;;;;;6.75;6.10;;;;;;;;;;5077591;28;20196;-89
2022/08/15 14:39:14;;;;;;;7.05;6.40;;;;;;;;;;5114283;28;20217;-90
2022/08/15 14:41:42;;;;;;;6.35;5.85;;;;;;;;;;5095301;28;20203;-89
2022/08/15 14:44:10;;;;;;;6.90;6.30;;;;;;;;;;5112806;28;20570;-89
2022/08/15 14:46:38;;;;;;;6.82;6.18;;;;;;;;;;5079756;28;20200;-88
2022/08/15 14:49:06;;;;;;;7.15;6.55;;;;;;;;;;5094691;28;20623;-87
2022/08/15 14:51:35;;;;;;;6.25;5.75;;;;;;;;;;5114265;28;20234;-88
2022/08/15 14:54:04;;;;;;;7.82;7.07;;;;;;;;;;5079674;28;20207;-89
2022/08/15 14:56:31;;;;;;;7.00;6.30;;;;;;;;;;5095177;28;20199;-88
2022/08/15 14:59:00;;;;;;;5.80;5.30;;;;;;;;;;5113565;28;20222;-87
2022/08/15 15:01:28;;;;;;;5.93;5.53;;;;;;;;;;5113697;28;20227;-88
2022/08/15 15:03:56;;;;;;;6.70;6.10;;;;;;;;;;5077547;28;20758;-88
2022/08/15 15:06:26;;;;;;;6.32;5.82;;;;;;;;;;5095045;28;20207;-87
2022/08/15 15:08:53;;;;;;;7.07;6.40;;;;;;;;;;5112423;28;20199;-89
2022/08/15 15:11:21;;;;;;;7.40;6.00;;;;;;;;;;5114183;28;20195;-89
2022/08/15 15:13:49;;;;;;;6.60;6.00;;;;;;;;;;5113436;28;20195;-89
2022/08/15 15:16:22;;;;;;;9.13;5.60;;;;;;;;;;5113461;28;20286;-89